createdAt,value
2017-08-18T00:00:00.530Z,0
2017-08-18T00:00:41.330Z,0
2017-08-18T00:01:22.131Z,0
2017-08-18T00:02:02.932Z,0
2017-08-18T00:02:43.732Z,0
2017-08-18T00:03:24.533Z,0
2017-08-18T00:04:05.367Z,0
2017-08-18T00:04:46.252Z,0
2017-08-18T00:05:27.052Z,0
2017-08-18T00:06:07.858Z,0
2017-08-18T00:06:48.653Z,0
2017-08-18T00:07:29.453Z,0
2017-08-18T00:08:10.254Z,0
2017-08-18T00:10:49.043Z,0
2017-08-18T00:11:29.936Z,0
2017-08-18T00:12:10.736Z,0
2017-08-18T00:12:51.538Z,0
2017-08-18T00:13:32.337Z,0
2017-08-18T00:14:13.136Z,0
2017-08-18T00:14:53.935Z,0
2017-08-18T00:15:34.738Z,0
2017-08-18T00:16:15.536Z,0
2017-08-18T00:16:56.251Z,0
2017-08-18T00:17:37.146Z,0
2017-08-18T00:18:17.939Z,0
2017-08-18T00:18:58.739Z,0
2017-08-18T00:19:39.540Z,0
2017-08-18T00:20:20.343Z,0
2017-08-18T00:21:01.140Z,0
2017-08-18T00:21:42.059Z,0
2017-08-18T00:22:22.859Z,0
2017-08-18T00:23:03.660Z,0
2017-08-18T00:23:44.580Z,0
2017-08-18T00:24:25.381Z,0
2017-08-18T00:26:52.065Z,0
2017-08-18T00:27:32.943Z,0
2017-08-18T00:28:13.744Z,0
2017-08-18T00:28:54.471Z,0
2017-08-18T00:29:35.344Z,0
2017-08-18T00:30:16.143Z,0
2017-08-18T00:30:56.945Z,0
2017-08-18T00:31:37.747Z,0
2017-08-18T00:32:18.548Z,0
2017-08-18T00:32:59.345Z,0
2017-08-18T00:33:40.145Z,0
2017-08-18T00:34:21.920Z,0
2017-08-18T00:35:01.869Z,0
2017-08-18T00:35:42.674Z,0
2017-08-18T00:36:23.585Z,0
2017-08-18T00:37:04.388Z,0
2017-08-18T00:37:45.187Z,0
2017-08-18T00:38:25.988Z,0
2017-08-18T00:39:06.789Z,0
2017-08-18T00:39:47.588Z,0
2017-08-18T00:40:28.393Z,0
2017-08-18T00:41:09.189Z,0
2017-08-18T00:41:49.990Z,0
2017-08-18T00:42:30.696Z,0
2017-08-18T00:43:11.589Z,0
2017-08-18T00:43:52.391Z,0
2017-08-18T00:44:33.192Z,0
2017-08-18T00:45:13.990Z,0
2017-08-18T00:45:54.793Z,0
2017-08-18T00:46:35.591Z,0
2017-08-18T00:47:16.391Z,0
2017-08-18T00:47:57.192Z,0
2017-08-18T00:48:37.992Z,0
2017-08-18T00:49:18.812Z,0
2017-08-18T00:49:59.593Z,0
2017-08-18T00:50:40.394Z,0
2017-08-18T00:51:21.194Z,0
2017-08-18T00:52:01.995Z,0
2017-08-18T00:52:42.795Z,0
2017-08-18T00:53:23.595Z,0
2017-08-18T00:54:04.396Z,0
2017-08-18T00:54:45.198Z,0
2017-08-18T00:55:25.994Z,0
2017-08-18T00:56:06.794Z,0
2017-08-18T00:56:47.595Z,0
2017-08-18T00:57:28.397Z,0
2017-08-18T00:58:09.196Z,0
2017-08-18T00:58:50.000Z,0
2017-08-18T00:59:30.806Z,0
2017-08-18T01:00:11.511Z,0
2017-08-18T01:00:52.281Z,0
2017-08-18T01:01:33.077Z,0
2017-08-18T01:02:13.878Z,0
2017-08-18T01:02:54.681Z,0
2017-08-18T01:03:35.479Z,0
2017-08-18T01:04:16.279Z,0
2017-08-18T01:04:57.081Z,0
2017-08-18T01:05:37.880Z,0
2017-08-18T01:06:18.690Z,0
2017-08-18T01:06:59.499Z,0
2017-08-18T01:07:40.201Z,0
2017-08-18T01:08:21.080Z,0
2017-08-18T01:09:01.884Z,0
2017-08-18T01:09:42.682Z,0
2017-08-18T01:12:21.444Z,0
2017-08-18T01:13:02.242Z,0
2017-08-18T01:13:43.643Z,0
2017-08-18T01:14:24.444Z,0
2017-08-18T01:15:05.244Z,0
2017-08-18T01:15:45.956Z,0
2017-08-18T01:16:26.853Z,0
2017-08-18T01:17:07.645Z,0
2017-08-18T01:17:48.445Z,0
2017-08-18T01:18:29.245Z,0
2017-08-18T01:19:10.046Z,0
2017-08-18T01:19:50.846Z,0
2017-08-18T01:20:31.647Z,0
2017-08-18T01:21:12.446Z,0
2017-08-18T01:21:53.247Z,0
2017-08-18T01:22:34.046Z,0
2017-08-18T01:23:14.849Z,0
2017-08-18T01:23:55.648Z,0
2017-08-18T01:24:36.449Z,0
2017-08-18T01:25:17.248Z,0
2017-08-18T01:25:58.048Z,0
2017-08-18T01:26:38.850Z,0
2017-08-18T01:27:19.652Z,0
2017-08-18T01:28:00.449Z,0
2017-08-18T01:28:41.257Z,0
2017-08-18T01:29:22.049Z,0
2017-08-18T01:30:02.850Z,0
2017-08-18T01:30:43.652Z,0
2017-08-18T01:31:24.452Z,0
2017-08-18T01:32:05.252Z,0
2017-08-18T01:32:46.052Z,0
2017-08-18T01:33:26.852Z,0
2017-08-18T01:34:07.653Z,0
2017-08-18T01:34:48.453Z,0
2017-08-18T01:35:29.254Z,0
2017-08-18T01:36:14.764Z,0
2017-08-18T01:36:55.654Z,0
2017-08-18T01:37:36.454Z,0
2017-08-18T01:38:17.254Z,0
2017-08-18T01:38:58.054Z,0
2017-08-18T01:39:38.856Z,0
2017-08-18T01:40:19.655Z,0
2017-08-18T01:41:00.455Z,0
2017-08-18T01:41:41.256Z,0
2017-08-18T01:42:22.056Z,0
2017-08-18T01:43:02.857Z,0
2017-08-18T01:43:43.657Z,0
2017-08-18T01:44:24.457Z,0
2017-08-18T01:45:05.258Z,0
2017-08-18T01:45:46.058Z,0
2017-08-18T01:46:26.858Z,0
2017-08-18T01:47:07.658Z,0
2017-08-18T01:47:48.459Z,0
2017-08-18T01:48:29.259Z,0
2017-08-18T01:49:10.059Z,0
2017-08-18T01:49:50.858Z,0
2017-08-18T01:50:31.662Z,0
2017-08-18T01:51:12.461Z,0
2017-08-18T01:51:53.261Z,0
2017-08-18T01:52:34.062Z,0
2017-08-18T01:53:14.860Z,0
2017-08-18T01:53:55.661Z,0
2017-08-18T01:54:36.464Z,0
2017-08-18T01:55:17.262Z,0
2017-08-18T01:55:58.061Z,0
2017-08-18T01:56:38.863Z,0
2017-08-18T01:57:19.663Z,0
2017-08-18T01:58:00.463Z,0
2017-08-18T01:58:41.264Z,0
2017-08-18T01:59:22.062Z,0
2017-08-18T02:00:02.863Z,0
2017-08-18T02:00:43.665Z,0
2017-08-18T02:01:24.465Z,0
2017-08-18T02:02:05.266Z,0
2017-08-18T02:02:46.066Z,0
2017-08-18T02:03:26.865Z,0
2017-08-18T02:04:07.666Z,0
2017-08-18T02:04:48.466Z,0
2017-08-18T02:05:29.267Z,0
2017-08-18T02:06:10.068Z,0
2017-08-18T02:06:50.866Z,0
2017-08-18T02:07:31.669Z,0
2017-08-18T02:08:12.469Z,0
2017-08-18T02:08:53.269Z,0
2017-08-18T02:09:34.074Z,0
2017-08-18T02:10:14.869Z,0
2017-08-18T02:10:55.669Z,0
2017-08-18T02:11:36.470Z,0
2017-08-18T02:12:17.269Z,0
2017-08-18T02:12:58.071Z,0
2017-08-18T02:13:38.871Z,0
2017-08-18T02:14:19.674Z,0
2017-08-18T02:15:00.473Z,0
2017-08-18T02:15:41.271Z,0
2017-08-18T02:16:22.072Z,0
2017-08-18T02:17:02.871Z,0
2017-08-18T02:17:43.672Z,0
2017-08-18T02:18:24.473Z,0
2017-08-18T02:19:05.274Z,0
2017-08-18T02:21:33.714Z,0
2017-08-18T02:22:14.515Z,0
2017-08-18T02:24:53.275Z,0
2017-08-18T02:25:34.076Z,0
2017-08-18T02:27:52.317Z,0
2017-08-18T02:28:33.118Z,0
2017-08-18T02:29:13.918Z,0
2017-08-18T02:29:54.718Z,0
2017-08-18T02:30:35.519Z,0
2017-08-18T02:31:16.321Z,0
2017-08-18T02:31:57.119Z,0
2017-08-18T02:32:37.920Z,0
2017-08-18T02:33:18.720Z,0
2017-08-18T02:33:59.520Z,0
2017-08-18T02:34:40.320Z,0
2017-08-18T02:35:21.121Z,0
2017-08-18T02:36:01.921Z,0
2017-08-18T02:36:42.723Z,0
2017-08-18T02:37:23.521Z,0
2017-08-18T02:38:04.322Z,0
2017-08-18T02:38:45.122Z,0
2017-08-18T02:39:25.921Z,0
2017-08-18T02:40:06.729Z,0
2017-08-18T02:40:47.523Z,0
2017-08-18T02:41:28.322Z,0
2017-08-18T02:42:09.124Z,0
2017-08-18T02:42:49.926Z,0
2017-08-18T02:43:30.737Z,0
2017-08-18T02:44:11.524Z,0
2017-08-18T02:44:52.326Z,0
2017-08-18T02:45:33.125Z,0
2017-08-18T02:46:13.926Z,0
2017-08-18T02:47:09.485Z,0
2017-08-18T02:47:50.286Z,0
2017-08-18T02:48:31.086Z,0
2017-08-18T02:49:11.887Z,0
2017-08-18T02:49:52.688Z,0
2017-08-18T02:50:33.487Z,0
2017-08-18T02:51:14.304Z,0
2017-08-18T02:52:09.881Z,0
2017-08-18T02:52:50.767Z,0
2017-08-18T02:53:31.571Z,0
2017-08-18T02:54:12.368Z,0
2017-08-18T02:54:53.081Z,0
2017-08-18T02:55:33.969Z,0
2017-08-18T02:56:14.770Z,0
2017-08-18T02:56:55.570Z,0
2017-08-18T02:57:36.370Z,0
2017-08-18T02:58:17.172Z,0
2017-08-18T02:58:57.972Z,0
2017-08-18T02:59:38.772Z,0
2017-08-18T03:00:19.572Z,0
2017-08-18T03:01:15.899Z,0
2017-08-18T03:01:56.772Z,0
2017-08-18T03:02:37.575Z,0
2017-08-18T03:03:18.371Z,0
2017-08-18T03:03:59.174Z,0
2017-08-18T03:04:39.974Z,0
2017-08-18T03:05:20.773Z,0
2017-08-18T03:06:01.574Z,0
2017-08-18T03:06:42.374Z,0
2017-08-18T03:07:23.173Z,0
2017-08-18T03:08:03.975Z,0
2017-08-18T03:08:44.775Z,0
2017-08-18T03:09:25.575Z,0
2017-08-18T03:10:06.377Z,0
2017-08-18T03:10:47.176Z,0
2017-08-18T03:13:05.417Z,0
2017-08-18T03:13:46.218Z,0
2017-08-18T03:14:27.018Z,0
2017-08-18T03:15:07.841Z,0
2017-08-18T03:15:48.619Z,0
2017-08-18T03:16:29.421Z,0
2017-08-18T03:17:10.220Z,0
2017-08-18T03:17:51.019Z,0
2017-08-18T03:18:31.820Z,0
2017-08-18T03:19:12.620Z,0
2017-08-18T03:19:53.424Z,0
2017-08-18T03:20:34.128Z,0
2017-08-18T03:21:14.928Z,0
2017-08-18T03:21:56.784Z,0
2017-08-18T03:22:38.328Z,0
2017-08-18T03:23:18.879Z,0
2017-08-18T03:24:00.388Z,0
2017-08-18T03:24:41.833Z,0
2017-08-18T03:26:55.584Z,0
2017-08-18T03:27:36.624Z,0
2017-08-18T03:28:17.571Z,0
2017-08-18T03:28:59.445Z,0
2017-08-18T03:29:39.653Z,0
2017-08-18T03:30:21.441Z,0
2017-08-18T03:31:01.586Z,0
2017-08-18T03:31:42.625Z,0
2017-08-18T03:32:23.425Z,0
2017-08-18T03:33:04.349Z,0
2017-08-18T03:33:45.992Z,0
2017-08-18T03:34:26.307Z,0
2017-08-18T03:35:07.107Z,0
2017-08-18T03:35:47.907Z,0
2017-08-18T03:36:28.708Z,0
2017-08-18T03:37:09.749Z,0
2017-08-18T03:37:50.791Z,0
2017-08-18T03:38:31.709Z,0
2017-08-18T03:44:15.152Z,0
2017-08-18T03:44:55.952Z,0
2017-08-18T03:47:09.033Z,0
2017-08-18T03:47:49.832Z,0
2017-08-18T03:48:30.632Z,0
2017-08-18T03:49:11.553Z,0
2017-08-18T03:49:52.353Z,0
2017-08-18T03:50:33.154Z,0
2017-08-18T03:51:13.955Z,0
2017-08-18T03:51:54.754Z,0
2017-08-18T03:52:35.554Z,0
2017-08-18T03:53:17.053Z,0
2017-08-18T03:53:57.642Z,0
2017-08-18T03:54:38.226Z,0
2017-08-18T03:55:18.811Z,0
2017-08-18T03:55:59.402Z,0
2017-08-18T03:56:39.986Z,0
2017-08-18T03:57:20.563Z,0
2017-08-18T03:58:01.153Z,0
2017-08-18T03:58:41.736Z,0
2017-08-18T03:59:22.318Z,0
2017-08-18T04:00:02.906Z,0
2017-08-18T04:00:55.201Z,0
2017-08-18T04:01:35.741Z,0
2017-08-18T04:02:16.325Z,0
2017-08-18T04:02:56.904Z,0
2017-08-18T04:03:37.484Z,0
2017-08-18T04:04:18.080Z,0
2017-08-18T04:04:58.660Z,0
2017-08-18T04:05:39.250Z,0
2017-08-18T04:06:34.423Z,0
2017-08-18T04:07:15.028Z,0
2017-08-18T04:07:55.600Z,0
2017-08-18T04:08:36.205Z,0
2017-08-18T04:09:16.818Z,0
2017-08-18T04:09:57.385Z,0
2017-08-18T04:10:37.960Z,0
2017-08-18T04:11:18.525Z,0
2017-08-18T04:11:59.117Z,0
2017-08-18T04:12:39.722Z,0
2017-08-18T04:13:20.272Z,0
2017-08-18T04:14:00.852Z,0
2017-08-18T04:14:41.442Z,0
2017-08-18T04:15:22.027Z,0
2017-08-18T04:16:02.612Z,0
2017-08-18T04:16:43.202Z,0
2017-08-18T04:17:23.780Z,0
2017-08-18T04:18:04.367Z,0
2017-08-18T04:18:44.963Z,0
2017-08-18T04:19:25.542Z,0
2017-08-18T04:20:06.126Z,0
2017-08-18T04:20:46.709Z,0
2017-08-18T04:21:27.300Z,0
2017-08-18T04:22:07.893Z,0
2017-08-18T04:22:48.476Z,0
2017-08-18T04:23:29.068Z,0
2017-08-18T04:24:09.651Z,0
2017-08-18T04:24:50.238Z,0
2017-08-18T04:25:30.824Z,0
2017-08-18T04:26:11.417Z,0
2017-08-18T04:26:51.990Z,0
2017-08-18T04:27:32.574Z,0
2017-08-18T04:28:13.161Z,0
2017-08-18T04:29:09.508Z,0
2017-08-18T04:29:50.085Z,5
2017-08-18T04:30:30.672Z,5
2017-08-18T04:31:11.259Z,5
2017-08-18T04:31:51.845Z,5
2017-08-18T04:32:32.428Z,5
2017-08-18T04:33:13.005Z,5
2017-08-18T04:33:53.586Z,5
2017-08-18T04:34:34.179Z,5
2017-08-18T04:35:14.761Z,5
2017-08-18T04:35:55.345Z,5
2017-08-18T04:36:35.936Z,5
2017-08-18T04:37:16.516Z,5
2017-08-18T04:37:57.100Z,5
2017-08-18T04:38:37.674Z,5
2017-08-18T04:39:18.246Z,5
2017-08-18T04:39:58.827Z,5
2017-08-18T04:40:39.405Z,5
2017-08-18T04:41:19.996Z,5
2017-08-18T04:42:00.575Z,5
2017-08-18T04:42:41.160Z,5
2017-08-18T04:43:21.737Z,5
2017-08-18T04:44:02.304Z,5
2017-08-18T04:44:42.886Z,5
2017-08-18T04:45:23.475Z,5
2017-08-18T04:46:10.636Z,5
2017-08-18T04:46:51.216Z,5
2017-08-18T04:47:31.802Z,10
2017-08-18T04:48:12.376Z,10
2017-08-18T04:48:52.970Z,10
2017-08-18T04:53:18.814Z,10
2017-08-18T04:53:59.395Z,10
2017-08-18T04:54:39.981Z,10
2017-08-18T04:55:20.567Z,10
2017-08-18T04:56:01.140Z,10
2017-08-18T04:56:41.721Z,10
2017-08-18T04:57:22.310Z,10
2017-08-18T04:58:02.894Z,10
2017-08-18T04:58:43.484Z,10
2017-08-18T04:59:24.066Z,10
2017-08-18T05:00:04.652Z,10
2017-08-18T05:00:45.238Z,10
2017-08-18T05:01:25.819Z,10
2017-08-18T05:04:04.155Z,10
2017-08-18T05:04:44.740Z,10
2017-08-18T05:05:25.322Z,10
2017-08-18T05:06:05.913Z,15
2017-08-18T05:06:46.500Z,15
2017-08-18T05:07:27.078Z,15
2017-08-18T05:08:07.672Z,15
2017-08-18T05:08:48.256Z,15
2017-08-18T05:09:28.848Z,15
2017-08-18T05:10:09.435Z,15
2017-08-18T05:10:50.021Z,15
2017-08-18T05:11:30.608Z,15
2017-08-18T05:12:29.877Z,15
2017-08-18T05:13:10.458Z,15
2017-08-18T05:13:51.037Z,15
2017-08-18T05:14:31.621Z,15
2017-08-18T05:15:12.205Z,15
2017-08-18T05:15:52.792Z,15
2017-08-18T05:16:33.371Z,15
2017-08-18T05:17:13.955Z,15
2017-08-18T05:17:54.544Z,15
2017-08-18T05:18:35.127Z,15
2017-08-18T05:19:15.713Z,15
2017-08-18T05:19:56.536Z,15
2017-08-18T05:20:37.315Z,15
2017-08-18T05:21:17.904Z,15
2017-08-18T05:21:58.491Z,15
2017-08-18T05:22:39.071Z,20
2017-08-18T05:23:19.651Z,20
2017-08-18T05:24:00.237Z,20
2017-08-18T05:24:40.817Z,20
2017-08-18T05:25:21.400Z,20
2017-08-18T05:26:01.994Z,20
2017-08-18T05:26:42.578Z,20
2017-08-18T05:27:23.159Z,20
2017-08-18T05:28:03.747Z,20
2017-08-18T05:28:44.334Z,20
2017-08-18T05:29:24.914Z,20
2017-08-18T05:30:05.497Z,25
2017-08-18T05:30:46.085Z,25
2017-08-18T05:31:26.654Z,25
2017-08-18T05:32:07.246Z,30
2017-08-18T05:32:47.829Z,30
2017-08-18T05:33:28.406Z,35
2017-08-18T05:34:08.982Z,35
2017-08-18T05:34:49.561Z,35
2017-08-18T05:35:30.143Z,10
2017-08-18T05:36:10.733Z,10
2017-08-18T05:36:51.307Z,10
2017-08-18T05:37:31.898Z,15
2017-08-18T05:38:12.467Z,15
2017-08-18T05:38:53.061Z,15
2017-08-18T05:39:33.649Z,15
2017-08-18T05:40:14.232Z,15
2017-08-18T05:40:54.829Z,15
2017-08-18T05:41:35.416Z,15
2017-08-18T05:42:16.001Z,20
2017-08-18T05:42:56.589Z,20
2017-08-18T05:43:37.174Z,25
2017-08-18T05:44:17.759Z,30
2017-08-18T05:44:58.344Z,30
2017-08-18T05:45:38.924Z,30
2017-08-18T05:46:19.509Z,30
2017-08-18T05:47:00.095Z,35
2017-08-18T05:47:40.678Z,40
2017-08-18T05:48:21.259Z,40
2017-08-18T05:49:01.841Z,40
2017-08-18T05:49:42.433Z,40
2017-08-18T05:50:23.011Z,40
2017-08-18T05:51:03.593Z,40
2017-08-18T05:51:44.185Z,40
2017-08-18T05:52:24.768Z,45
2017-08-18T05:53:05.344Z,45
2017-08-18T05:53:45.932Z,45
2017-08-18T05:54:26.499Z,40
2017-08-18T05:55:07.089Z,40
2017-08-18T05:55:47.666Z,45
2017-08-18T05:56:28.243Z,45
2017-08-18T05:57:17.906Z,40
2017-08-18T05:57:58.482Z,35
2017-08-18T05:58:39.071Z,40
2017-08-18T05:59:19.656Z,40
2017-08-18T06:00:00.246Z,0
2017-08-18T06:00:40.824Z,0
2017-08-18T06:01:21.410Z,0
2017-08-18T06:02:01.987Z,0
2017-08-18T06:02:42.573Z,0
2017-08-18T06:03:23.163Z,0
2017-08-18T06:04:03.751Z,0
2017-08-18T06:04:44.339Z,0
2017-08-18T06:05:24.922Z,5
2017-08-18T06:06:05.495Z,5
2017-08-18T06:06:46.088Z,5
2017-08-18T06:07:26.677Z,5
2017-08-18T06:08:07.262Z,5
2017-08-18T06:08:47.843Z,5
2017-08-18T06:09:28.426Z,5
2017-08-18T06:10:09.005Z,5
2017-08-18T06:10:49.589Z,5
2017-08-18T06:11:30.179Z,5
2017-08-18T06:12:10.738Z,0
2017-08-18T06:12:51.333Z,0
2017-08-18T06:13:31.913Z,0
2017-08-18T06:14:12.504Z,0
2017-08-18T06:14:53.087Z,0
2017-08-18T06:15:33.660Z,0
2017-08-18T06:16:14.252Z,0
2017-08-18T06:16:54.823Z,0
2017-08-18T06:17:35.413Z,0
2017-08-18T06:18:16.011Z,0
2017-08-18T06:18:56.595Z,0
2017-08-18T06:19:37.173Z,0
2017-08-18T06:20:17.757Z,0
2017-08-18T06:20:58.350Z,0
2017-08-18T06:21:38.936Z,0
2017-08-18T06:22:19.527Z,0
2017-08-18T06:23:00.109Z,0
2017-08-18T06:23:40.702Z,0
2017-08-18T06:24:21.284Z,0
2017-08-18T06:25:16.823Z,0
2017-08-18T06:25:57.419Z,0
2017-08-18T06:26:38.010Z,0
2017-08-18T06:28:55.999Z,0
2017-08-18T06:31:29.182Z,0
2017-08-18T06:32:09.760Z,0
2017-08-18T06:32:50.346Z,0
2017-08-18T06:33:30.934Z,0
2017-08-18T06:34:11.512Z,0
2017-08-18T06:34:52.089Z,0
2017-08-18T06:35:32.672Z,0
2017-08-18T06:36:13.258Z,0
2017-08-18T06:36:53.840Z,0
2017-08-18T06:37:34.422Z,0
2017-08-18T06:38:15.005Z,0
2017-08-18T06:38:55.597Z,0
2017-08-18T06:39:36.180Z,0
2017-08-18T06:40:16.761Z,0
2017-08-18T06:40:57.343Z,0
2017-08-18T06:41:37.923Z,0
2017-08-18T06:42:18.513Z,0
2017-08-18T06:42:59.097Z,0
2017-08-18T06:45:32.339Z,0
2017-08-18T06:46:12.931Z,0
2017-08-18T06:46:53.506Z,0
2017-08-18T06:47:34.090Z,0
2017-08-18T06:48:14.680Z,0
2017-08-18T06:48:55.259Z,0
2017-08-18T06:49:35.842Z,0
2017-08-18T06:50:16.431Z,0
2017-08-18T06:50:57.011Z,0
2017-08-18T06:51:37.597Z,0
2017-08-18T06:52:18.187Z,0
2017-08-18T06:52:58.776Z,0
2017-08-18T06:53:39.351Z,0
2017-08-18T06:54:19.937Z,0
2017-08-18T06:55:00.528Z,0
2017-08-18T06:55:41.119Z,0
2017-08-18T06:56:21.702Z,0
2017-08-18T06:57:02.287Z,0
2017-08-18T06:57:42.861Z,0
2017-08-18T06:58:23.449Z,0
2017-08-18T06:59:04.029Z,0
2017-08-18T06:59:44.625Z,0
2017-08-18T07:00:25.198Z,0
2017-08-18T07:01:05.786Z,0
2017-08-18T07:01:46.372Z,0
2017-08-18T07:02:26.966Z,0
2017-08-18T07:03:07.559Z,0
2017-08-18T07:03:48.141Z,0
2017-08-18T07:04:28.723Z,0
2017-08-18T07:05:09.308Z,0
2017-08-18T07:05:49.897Z,0
2017-08-18T07:06:30.489Z,0
2017-08-18T07:07:13.154Z,0
2017-08-18T07:07:53.742Z,0
2017-08-18T07:08:34.331Z,0
2017-08-18T07:09:14.914Z,0
2017-08-18T07:09:55.506Z,0
2017-08-18T07:10:36.090Z,0
2017-08-18T07:11:16.672Z,0
2017-08-18T07:11:57.257Z,0
2017-08-18T07:12:37.845Z,0
2017-08-18T07:13:18.427Z,0
2017-08-18T07:13:59.006Z,0
2017-08-18T07:14:39.584Z,0
2017-08-18T07:15:20.178Z,0
2017-08-18T07:16:00.759Z,0
2017-08-18T07:16:41.349Z,0
2017-08-18T07:17:21.936Z,0
2017-08-18T07:18:02.517Z,0
2017-08-18T07:18:43.104Z,0
2017-08-18T07:19:23.692Z,0
2017-08-18T07:20:04.286Z,0
2017-08-18T07:20:44.871Z,0
2017-08-18T07:21:25.456Z,0
2017-08-18T07:22:06.036Z,0
2017-08-18T07:22:46.623Z,0
2017-08-18T07:23:27.213Z,0
2017-08-18T07:24:07.804Z,0
2017-08-18T07:24:48.384Z,0
2017-08-18T07:25:28.977Z,0
2017-08-18T07:26:09.562Z,0
2017-08-18T07:26:50.138Z,0
2017-08-18T07:27:30.731Z,0
2017-08-18T07:28:11.318Z,0
2017-08-18T07:28:51.900Z,0
2017-08-18T07:29:32.490Z,0
2017-08-18T07:30:13.075Z,0
2017-08-18T07:30:53.663Z,0
2017-08-18T07:31:34.249Z,0
2017-08-18T07:32:14.838Z,0
2017-08-18T07:32:55.421Z,0
2017-08-18T07:33:36.004Z,0
2017-08-18T07:34:16.595Z,0
2017-08-18T07:34:57.178Z,0
2017-08-18T07:35:37.764Z,0
2017-08-18T07:36:18.350Z,0
2017-08-18T07:36:58.934Z,0
2017-08-18T07:37:39.530Z,0
2017-08-18T07:38:20.107Z,0
2017-08-18T07:39:00.694Z,0
2017-08-18T07:39:41.275Z,0
2017-08-18T07:40:21.873Z,0
2017-08-18T07:41:02.458Z,0
2017-08-18T07:41:43.038Z,0
2017-08-18T07:42:23.624Z,0
2017-08-18T07:43:04.220Z,0
2017-08-18T07:43:44.802Z,0
2017-08-18T07:44:25.392Z,0
2017-08-18T07:45:05.968Z,0
2017-08-18T07:45:46.565Z,0
2017-08-18T07:46:27.148Z,0
2017-08-18T07:47:07.730Z,0
2017-08-18T07:47:48.320Z,0
2017-08-18T07:48:28.905Z,0
2017-08-18T07:49:09.498Z,0
2017-08-18T07:49:50.084Z,0
2017-08-18T07:50:30.661Z,0
2017-08-18T07:51:11.252Z,0
2017-08-18T07:51:51.833Z,0
2017-08-18T07:52:32.411Z,0
2017-08-18T07:53:13.000Z,0
2017-08-18T07:53:53.587Z,0
2017-08-18T07:54:34.177Z,0
2017-08-18T07:55:14.761Z,0
2017-08-18T07:55:55.348Z,0
2017-08-18T07:56:35.932Z,0
2017-08-18T07:57:16.519Z,0
2017-08-18T07:57:57.123Z,0
2017-08-18T07:58:37.709Z,0
2017-08-18T07:59:18.293Z,0
2017-08-18T07:59:58.868Z,0
2017-08-18T08:00:39.450Z,0
2017-08-18T08:01:20.040Z,0
2017-08-18T08:02:00.616Z,0
2017-08-18T08:02:41.202Z,0
2017-08-18T08:03:21.789Z,0
2017-08-18T08:04:02.373Z,0
2017-08-18T08:04:42.964Z,0
2017-08-18T08:05:23.542Z,0
2017-08-18T08:06:04.131Z,0
2017-08-18T08:06:44.720Z,0
2017-08-18T08:07:25.308Z,0
2017-08-18T08:08:05.895Z,0
2017-08-18T08:08:46.481Z,0
2017-08-18T08:09:27.070Z,0
2017-08-18T08:10:07.650Z,0
2017-08-18T08:10:48.227Z,0
2017-08-18T08:11:28.810Z,0
2017-08-18T08:12:09.389Z,0
2017-08-18T08:12:49.965Z,0
2017-08-18T08:13:30.548Z,0
2017-08-18T08:14:11.127Z,0
2017-08-18T08:14:51.709Z,0
2017-08-18T08:15:32.295Z,0
2017-08-18T08:16:12.881Z,0
2017-08-18T08:16:53.461Z,0
2017-08-18T08:17:34.051Z,0
2017-08-18T08:18:14.621Z,0
2017-08-18T08:18:55.206Z,0
2017-08-18T08:19:35.800Z,0
2017-08-18T08:20:16.389Z,0
2017-08-18T08:22:34.892Z,0
2017-08-18T08:23:15.478Z,0
2017-08-18T08:23:56.057Z,0
2017-08-18T08:24:36.646Z,0
2017-08-18T08:25:17.232Z,0
2017-08-18T08:25:57.811Z,0
2017-08-18T08:26:38.405Z,0
2017-08-18T08:27:18.990Z,0
2017-08-18T08:27:59.580Z,0
2017-08-18T08:28:40.166Z,0
2017-08-18T08:29:20.745Z,0
2017-08-18T08:30:01.325Z,0
2017-08-18T08:30:41.916Z,0
2017-08-18T08:31:22.491Z,0
2017-08-18T08:32:03.071Z,0
2017-08-18T08:32:43.659Z,0
2017-08-18T08:33:24.233Z,0
2017-08-18T08:34:04.825Z,0
2017-08-18T08:34:45.398Z,0
2017-08-18T08:35:25.993Z,0
2017-08-18T08:36:06.575Z,0
2017-08-18T08:36:47.155Z,0
2017-08-18T08:37:27.734Z,0
2017-08-18T08:38:08.325Z,0
2017-08-18T08:38:48.912Z,0
2017-08-18T08:39:29.508Z,0
2017-08-18T08:40:10.087Z,0
2017-08-18T08:40:50.673Z,0
2017-08-18T08:41:31.261Z,0
2017-08-18T08:42:11.848Z,0
2017-08-18T08:42:52.433Z,0
2017-08-18T08:43:33.026Z,0
2017-08-18T08:44:13.610Z,0
2017-08-18T08:44:54.220Z,0
2017-08-18T08:45:34.807Z,0
2017-08-18T08:46:15.390Z,0
2017-08-18T08:46:55.973Z,0
2017-08-18T08:47:36.547Z,0
2017-08-18T08:48:17.127Z,0
2017-08-18T08:49:08.357Z,0
2017-08-18T08:49:48.943Z,0
2017-08-18T08:50:29.537Z,0
2017-08-18T08:51:10.195Z,0
2017-08-18T08:51:50.785Z,0
2017-08-18T08:52:31.373Z,0
2017-08-18T08:53:11.961Z,0
2017-08-18T08:53:52.550Z,0
2017-08-18T08:54:33.130Z,0
2017-08-18T08:55:13.708Z,0
2017-08-18T08:55:54.288Z,0
2017-08-18T08:56:34.872Z,0
2017-08-18T08:57:15.465Z,0
2017-08-18T08:57:56.051Z,0
2017-08-18T08:58:36.640Z,0
2017-08-18T08:59:17.204Z,0
2017-08-18T08:59:57.795Z,0
2017-08-18T09:00:38.377Z,0
2017-08-18T09:01:18.967Z,0
2017-08-18T09:01:59.553Z,0
2017-08-18T09:02:40.135Z,0
2017-08-18T09:03:20.726Z,0
2017-08-18T09:04:01.316Z,0
2017-08-18T09:04:41.892Z,0
2017-08-18T09:05:22.476Z,0
2017-08-18T09:06:03.070Z,0
2017-08-18T09:06:43.652Z,0
2017-08-18T09:07:24.234Z,0
2017-08-18T09:08:04.827Z,0
2017-08-18T09:08:45.409Z,0
2017-08-18T09:09:25.990Z,0
2017-08-18T09:10:06.572Z,0
2017-08-18T09:10:47.156Z,0
2017-08-18T09:11:27.739Z,0
2017-08-18T09:12:08.321Z,0
2017-08-18T09:12:48.907Z,0
2017-08-18T09:13:29.497Z,0
2017-08-18T09:14:10.076Z,0
2017-08-18T09:14:50.658Z,0
2017-08-18T09:15:31.251Z,0
2017-08-18T09:16:11.831Z,0
2017-08-18T09:16:52.413Z,0
2017-08-18T09:17:32.993Z,0
2017-08-18T09:18:13.592Z,0
2017-08-18T09:18:54.185Z,0
2017-08-18T09:19:34.777Z,0
2017-08-18T09:20:15.363Z,0
2017-08-18T09:20:55.942Z,0
2017-08-18T09:21:36.518Z,0
2017-08-18T09:22:17.103Z,0
2017-08-18T09:22:57.691Z,0
2017-08-18T09:23:38.278Z,0
2017-08-18T09:24:18.865Z,0
2017-08-18T09:24:59.442Z,0
2017-08-18T09:25:40.042Z,0
2017-08-18T09:26:20.617Z,0
2017-08-18T09:27:01.184Z,0
2017-08-18T09:27:41.781Z,0
2017-08-18T09:28:22.365Z,0
2017-08-18T09:29:02.946Z,0
2017-08-18T09:29:43.521Z,0
2017-08-18T09:30:24.114Z,0
2017-08-18T09:31:04.689Z,0
2017-08-18T09:31:45.267Z,0
2017-08-18T09:32:25.853Z,0
2017-08-18T09:33:06.445Z,0
2017-08-18T09:33:47.025Z,0
2017-08-18T09:34:27.608Z,0
2017-08-18T09:35:08.200Z,0
2017-08-18T09:35:48.790Z,0
2017-08-18T09:36:29.380Z,0
2017-08-18T09:37:09.962Z,0
2017-08-18T09:37:50.554Z,0
2017-08-18T09:38:31.141Z,0
2017-08-18T09:39:11.737Z,0
2017-08-18T09:39:52.312Z,0
2017-08-18T09:40:32.902Z,0
2017-08-18T09:41:13.479Z,0
2017-08-18T09:41:54.067Z,0
2017-08-18T09:42:34.648Z,0
2017-08-18T09:43:15.243Z,0
2017-08-18T09:43:55.824Z,0
2017-08-18T09:44:36.413Z,0
2017-08-18T09:45:17.004Z,0
2017-08-18T09:45:57.588Z,0
2017-08-18T09:46:38.175Z,0
2017-08-18T09:47:18.768Z,0
2017-08-18T09:47:59.350Z,0
2017-08-18T09:48:39.933Z,0
2017-08-18T09:49:20.516Z,0
2017-08-18T09:50:01.104Z,0
2017-08-18T09:50:41.693Z,0
2017-08-18T09:51:22.280Z,0
2017-08-18T09:52:02.872Z,0
2017-08-18T09:52:43.458Z,0
2017-08-18T09:55:11.580Z,0
2017-08-18T09:55:52.170Z,0
2017-08-18T09:56:32.762Z,0
2017-08-18T09:57:13.348Z,0
2017-08-18T09:57:53.931Z,0
2017-08-18T09:58:34.523Z,0
2017-08-18T09:59:15.098Z,0
2017-08-18T09:59:55.697Z,0
2017-08-18T10:00:36.279Z,0
2017-08-18T10:01:16.852Z,0
2017-08-18T10:01:57.444Z,0
2017-08-18T10:02:38.028Z,0
2017-08-18T10:03:18.615Z,0
2017-08-18T10:03:59.187Z,0
2017-08-18T10:04:39.778Z,0
2017-08-18T10:05:20.363Z,0
2017-08-18T10:06:00.942Z,0
2017-08-18T10:06:41.538Z,0
2017-08-18T10:07:22.114Z,0
2017-08-18T10:08:02.699Z,0
2017-08-18T10:08:43.273Z,0
2017-08-18T10:09:23.860Z,0
2017-08-18T10:10:04.438Z,0
2017-08-18T10:10:45.013Z,0
2017-08-18T10:11:25.591Z,0
2017-08-18T10:12:06.174Z,0
2017-08-18T10:12:46.750Z,0
2017-08-18T10:13:27.340Z,0
2017-08-18T10:14:07.923Z,0
2017-08-18T10:14:48.506Z,0
2017-08-18T10:15:29.082Z,0
2017-08-18T10:16:09.670Z,0
2017-08-18T10:16:50.258Z,0
2017-08-18T10:17:30.853Z,0
2017-08-18T10:18:11.430Z,0
2017-08-18T10:18:52.001Z,0
2017-08-18T10:19:32.577Z,0
2017-08-18T10:20:13.165Z,0
2017-08-18T10:20:53.754Z,0
2017-08-18T10:21:34.341Z,0
2017-08-18T10:22:14.930Z,0
2017-08-18T10:22:55.513Z,0
2017-08-18T10:23:36.107Z,0
2017-08-18T10:24:16.695Z,0
2017-08-18T10:24:57.293Z,0
2017-08-18T10:25:37.875Z,0
2017-08-18T10:26:18.466Z,0
2017-08-18T10:26:59.056Z,0
2017-08-18T10:27:39.636Z,0
2017-08-18T10:28:20.240Z,0
2017-08-18T10:29:00.819Z,0
2017-08-18T10:29:41.416Z,20
2017-08-18T10:30:22.004Z,20
2017-08-18T10:31:02.760Z,20
2017-08-18T10:31:43.355Z,20
2017-08-18T10:32:23.937Z,20
2017-08-18T10:33:04.739Z,20
2017-08-18T10:33:45.551Z,20
2017-08-18T10:34:26.246Z,20
2017-08-18T10:35:07.003Z,20
2017-08-18T10:35:47.855Z,20
2017-08-18T10:36:28.595Z,20